sensor_id;sensor_type;location;lat;lon;timestamp;pressure;altitude;pressure_sealevel;temperature;humidity
163;BME280;3946;48.958;8.284;2023-05-23T00:01:41;100306.47;;;17.49;100.00
163;BME280;3946;48.958;8.284;2023-05-23T00:04:28;100294.81;;;17.34;100.00
163;BME280;3946;48.958;8.284;2023-05-23T00:07:13;100296.88;;;17.30;100.00
163;BME280;3946;48.958;8.284;2023-05-23T00:09:59;100302.25;;;17.29;100.00
163;BME280;3946;48.958;8.284;2023-05-23T00:12:44;100304.19;;;17.27;100.00
163;BME280;3946;48.958;8.284;2023-05-23T00:15:31;100311.03;;;17.37;100.00
163;BME280;3946;48.958;8.284;2023-05-23T00:18:16;100317.56;;;17.33;100.00
163;BME280;3946;48.958;8.284;2023-05-23T00:21:02;100315.31;;;17.38;100.00
163;BME280;3946;48.958;8.284;2023-05-23T00:23:47;100317.56;;;17.33;100.00
163;BME280;3946;48.958;8.284;2023-05-23T00:26:33;100325.41;;;17.33;100.00
163;BME280;3946;48.958;8.284;2023-05-23T00:29:18;100321.81;;;17.34;100.00
163;BME280;3946;48.958;8.284;2023-05-23T00:32:04;100321.69;;;17.36;100.00
163;BME280;3946;48.958;8.284;2023-05-23T00:34:49;100316.31;;;17.28;100.00
163;BME280;3946;48.958;8.284;2023-05-23T00:37:36;100313.88;;;17.17;100.00
163;BME280;3946;48.958;8.284;2023-05-23T00:40:21;100312.75;;;17.19;100.00
163;BME280;3946;48.958;8.284;2023-05-23T00:43:11;100320.91;;;17.06;100.00
163;BME280;3946;48.958;8.284;2023-05-23T00:45:56;100313.47;;;17.02;100.00
163;BME280;3946;48.958;8.284;2023-05-23T00:48:43;100316.38;;;16.99;100.00
163;BME280;3946;48.958;8.284;2023-05-23T00:51:30;100323.66;;;16.95;100.00
163;BME280;3946;48.958;8.284;2023-05-23T00:54:16;100321.19;;;17.03;100.00
163;BME280;3946;48.958;8.284;2023-05-23T00:57:02;100325.31;;;17.06;100.00
163;BME280;3946;48.958;8.284;2023-05-23T00:59:47;100333.84;;;17.08;100.00
163;BME280;3946;48.958;8.284;2023-05-23T01:02:36;100333.56;;;17.11;100.00
163;BME280;3946;48.958;8.284;2023-05-23T01:05:25;100332.59;;;17.22;100.00
163;BME280;3946;48.958;8.284;2023-05-23T01:08:10;100334.38;;;17.21;100.00
163;BME280;3946;48.958;8.284;2023-05-23T01:10:55;100331.38;;;17.16;100.00
163;BME280;3946;48.958;8.284;2023-05-23T01:13:46;100334.81;;;17.07;100.00
163;BME280;3946;48.958;8.284;2023-05-23T01:16:35;100331.25;;;16.98;100.00
163;BME280;3946;48.958;8.284;2023-05-23T01:19:29;100333.44;;;16.93;100.00
163;BME280;3946;48.958;8.284;2023-05-23T01:22:27;100338.00;;;16.91;100.00
163;BME280;3946;48.958;8.284;2023-05-23T01:25:21;100336.34;;;16.90;100.00
163;BME280;3946;48.958;8.284;2023-05-23T01:28:13;100334.00;;;16.77;100.00
163;BME280;3946;48.958;8.284;2023-05-23T01:30:59;100328.50;;;16.71;100.00
163;BME280;3946;48.958;8.284;2023-05-23T01:33:46;100331.22;;;16.60;100.00
163;BME280;3946;48.958;8.284;2023-05-23T01:36:34;100336.72;;;16.57;100.00
163;BME280;3946;48.958;8.284;2023-05-23T01:39:23;100331.91;;;16.52;100.00
163;BME280;3946;48.958;8.284;2023-05-23T01:42:08;100340.97;;;16.48;100.00
163;BME280;3946;48.958;8.284;2023-05-23T01:44:55;100344.25;;;16.40;100.00
163;BME280;3946;48.958;8.284;2023-05-23T01:47:42;100347.69;;;16.41;100.00
163;BME280;3946;48.958;8.284;2023-05-23T01:50:31;100348.41;;;16.43;100.00
163;BME280;3946;48.958;8.284;2023-05-23T01:53:17;100353.78;;;16.51;100.00
163;BME280;3946;48.958;8.284;2023-05-23T01:56:02;100344.28;;;16.60;100.00
163;BME280;3946;48.958;8.284;2023-05-23T01:58:48;100354.06;;;16.48;100.00
163;BME280;3946;48.958;8.284;2023-05-23T02:01:34;100353.78;;;16.61;100.00
163;BME280;3946;48.958;8.284;2023-05-23T02:04:20;100357.44;;;16.98;100.00
163;BME280;3946;48.958;8.284;2023-05-23T02:07:05;100347.22;;;16.95;100.00
163;BME280;3946;48.958;8.284;2023-05-23T02:09:50;100350.28;;;16.71;100.00
163;BME280;3946;48.958;8.284;2023-05-23T02:12:35;100357.00;;;16.64;100.00
163;BME280;3946;48.958;8.284;2023-05-23T02:15:23;100359.72;;;16.53;100.00
163;BME280;3946;48.958;8.284;2023-05-23T02:18:10;100368.78;;;16.49;100.00
163;BME280;3946;48.958;8.284;2023-05-23T02:20:59;100360.25;;;16.47;100.00
163;BME280;3946;48.958;8.284;2023-05-23T02:23:44;100358.06;;;16.52;100.00
163;BME280;3946;48.958;8.284;2023-05-23T02:26:29;100364.78;;;16.45;100.00
163;BME280;3946;48.958;8.284;2023-05-23T02:29:14;100366.72;;;16.43;100.00
163;BME280;3946;48.958;8.284;2023-05-23T02:31:59;100367.00;;;16.50;100.00
163;BME280;3946;48.958;8.284;2023-05-23T02:34:45;100375.13;;;16.47;100.00
163;BME280;3946;48.958;8.284;2023-05-23T02:37:33;100380.75;;;16.42;100.00
163;BME280;3946;48.958;8.284;2023-05-23T02:40:18;100379.13;;;16.51;100.00
163;BME280;3946;48.958;8.284;2023-05-23T02:43:03;100371.66;;;16.36;100.00
163;BME280;3946;48.958;8.284;2023-05-23T02:45:48;100370.38;;;16.21;100.00
163;BME280;3946;48.958;8.284;2023-05-23T02:48:33;100378.06;;;16.13;100.00
163;BME280;3946;48.958;8.284;2023-05-23T02:51:19;100385.47;;;16.08;100.00
163;BME280;3946;48.958;8.284;2023-05-23T02:54:04;100379.13;;;16.01;100.00
163;BME280;3946;48.958;8.284;2023-05-23T02:56:53;100391.94;;;16.04;100.00
163;BME280;3946;48.958;8.284;2023-05-23T02:59:39;100390.84;;;16.06;100.00
163;BME280;3946;48.958;8.284;2023-05-23T03:02:24;100394.13;;;16.08;100.00
163;BME280;3946;48.958;8.284;2023-05-23T03:05:09;100394.19;;;16.18;100.00
163;BME280;3946;48.958;8.284;2023-05-23T03:07:55;100390.88;;;16.26;100.00
163;BME280;3946;48.958;8.284;2023-05-23T03:10:41;100393.94;;;16.31;100.00
163;BME280;3946;48.958;8.284;2023-05-23T03:13:28;100390.34;;;16.22;100.00
163;BME280;3946;48.958;8.284;2023-05-23T03:16:14;100391.84;;;16.25;100.00
163;BME280;3946;48.958;8.284;2023-05-23T03:18:59;100389.94;;;16.27;100.00
163;BME280;3946;48.958;8.284;2023-05-23T03:21:44;100404.00;;;16.35;100.00
163;BME280;3946;48.958;8.284;2023-05-23T03:24:30;100404.84;;;16.36;100.00
163;BME280;3946;48.958;8.284;2023-05-23T03:27:15;100404.84;;;16.36;100.00
163;BME280;3946;48.958;8.284;2023-05-23T03:30:01;100399.34;;;16.39;100.00
163;BME280;3946;48.958;8.284;2023-05-23T03:32:46;100412.69;;;16.45;100.00
163;BME280;3946;48.958;8.284;2023-05-23T03:35:30;100398.66;;;16.56;100.00
163;BME280;3946;48.958;8.284;2023-05-23T03:38:15;100414.22;;;16.58;100.00
163;BME280;3946;48.958;8.284;2023-05-23T03:41:02;100416.72;;;16.59;100.00
163;BME280;3946;48.958;8.284;2023-05-23T03:43:47;100410.78;;;16.57;100.00
163;BME280;3946;48.958;8.284;2023-05-23T03:46:35;100414.78;;;16.61;100.00
163;BME280;3946;48.958;8.284;2023-05-23T03:49:20;100414.69;;;16.63;100.00
163;BME280;3946;48.958;8.284;2023-05-23T03:52:05;100417.59;;;16.69;100.00
163;BME280;3946;48.958;8.284;2023-05-23T03:54:51;100420.50;;;16.76;100.00
163;BME280;3946;48.958;8.284;2023-05-23T03:57:38;100419.56;;;16.87;100.00
163;BME280;3946;48.958;8.284;2023-05-23T04:00:24;100415.00;;;16.79;100.00
163;BME280;3946;48.958;8.284;2023-05-23T04:03:09;100420.09;;;16.71;100.00
163;BME280;3946;48.958;8.284;2023-05-23T04:05:57;100424.50;;;16.80;100.00
163;BME280;3946;48.958;8.284;2023-05-23T04:08:43;100421.63;;;16.83;100.00
163;BME280;3946;48.958;8.284;2023-05-23T04:11:29;100425.31;;;16.90;100.00
163;BME280;3946;48.958;8.284;2023-05-23T04:14:15;100422.19;;;16.87;100.00
163;BME280;3946;48.958;8.284;2023-05-23T04:17:00;100419.13;;;16.82;100.00
163;BME280;3946;48.958;8.284;2023-05-23T04:19:46;100416.38;;;16.93;100.00
163;BME280;3946;48.958;8.284;2023-05-23T04:22:31;100425.47;;;16.89;100.00
163;BME280;3946;48.958;8.284;2023-05-23T04:25:17;100424.22;;;16.93;100.00
163;BME280;3946;48.958;8.284;2023-05-23T04:28:10;100422.19;;;16.96;100.00
163;BME280;3946;48.958;8.284;2023-05-23T04:30:57;100418.03;;;16.94;100.00
163;BME280;3946;48.958;8.284;2023-05-23T04:33:46;100423.41;;;17.21;100.00
163;BME280;3946;48.958;8.284;2023-05-23T04:36:32;100413.50;;;17.25;100.00
163;BME280;3946;48.958;8.284;2023-05-23T04:39:20;100420.00;;;17.21;100.00
163;BME280;3946;48.958;8.284;2023-05-23T04:42:25;100424.38;;;17.39;100.00
163;BME280;3946;48.958;8.284;2023-05-23T04:45:35;100417.78;;;17.35;100.00
163;BME280;3946;48.958;8.284;2023-05-23T04:48:42;100425.19;;;17.40;100.00
163;BME280;3946;48.958;8.284;2023-05-23T04:51:28;100428.25;;;17.35;100.00
163;BME280;3946;48.958;8.284;2023-05-23T04:54:20;100425.34;;;17.29;100.00
163;BME280;3946;48.958;8.284;2023-05-23T04:57:05;100433.34;;;17.37;100.00
163;BME280;3946;48.958;8.284;2023-05-23T04:59:51;100420.78;;;17.40;100.00
163;BME280;3946;48.958;8.284;2023-05-23T05:02:38;100429.84;;;17.56;100.00
163;BME280;3946;48.958;8.284;2023-05-23T05:05:25;100431.25;;;17.60;100.00
163;BME280;3946;48.958;8.284;2023-05-23T05:08:11;100437.44;;;17.59;100.00
163;BME280;3946;48.958;8.284;2023-05-23T05:10:57;100430.13;;;17.72;100.00
163;BME280;3946;48.958;8.284;2023-05-23T05:13:42;100430.50;;;17.87;100.00
163;BME280;3946;48.958;8.284;2023-05-23T05:16:28;100430.44;;;18.15;100.00
163;BME280;3946;48.958;8.284;2023-05-23T05:19:13;100428.69;;;18.34;100.00
163;BME280;3946;48.958;8.284;2023-05-23T05:22:00;100436.09;;;18.38;100.00
163;BME280;3946;48.958;8.284;2023-05-23T05:24:46;100432.16;;;18.52;99.36
163;BME280;3946;48.958;8.284;2023-05-23T05:27:31;100438.53;;;18.59;96.83
163;BME280;3946;48.958;8.284;2023-05-23T05:30:17;100437.94;;;18.56;97.26
163;BME280;3946;48.958;8.284;2023-05-23T05:33:09;100435.53;;;18.44;96.48
163;BME280;3946;48.958;8.284;2023-05-23T05:35:54;100438.53;;;18.59;95.36
163;BME280;3946;48.958;8.284;2023-05-23T05:38:41;100440.78;;;18.44;96.27
163;BME280;3946;48.958;8.284;2023-05-23T05:41:26;100445.97;;;18.54;95.67
163;BME280;3946;48.958;8.284;2023-05-23T05:44:11;100448.19;;;18.59;95.25
163;BME280;3946;48.958;8.284;2023-05-23T05:46:56;100443.25;;;18.73;93.78
163;BME280;3946;48.958;8.284;2023-05-23T05:49:42;100442.97;;;18.76;93.91
163;BME280;3946;48.958;8.284;2023-05-23T05:52:27;100440.72;;;18.64;91.47
163;BME280;3946;48.958;8.284;2023-05-23T05:55:14;100445.59;;;18.76;91.20
163;BME280;3946;48.958;8.284;2023-05-23T05:58:03;100449.59;;;18.98;90.28
163;BME280;3946;48.958;8.284;2023-05-23T06:01:00;100454.47;;;19.11;88.63
163;BME280;3946;48.958;8.284;2023-05-23T06:03:45;100454.03;;;19.15;86.25
163;BME280;3946;48.958;8.284;2023-05-23T06:06:30;100460.31;;;19.05;87.36
163;BME280;3946;48.958;8.284;2023-05-23T06:09:15;100454.88;;;18.98;86.79
163;BME280;3946;48.958;8.284;2023-05-23T06:12:02;100461.09;;;18.97;87.28
163;BME280;3946;48.958;8.284;2023-05-23T06:14:47;100460.84;;;19.08;85.61
163;BME280;3946;48.958;8.284;2023-05-23T06:17:33;100466.41;;;19.05;84.44
163;BME280;3946;48.958;8.284;2023-05-23T06:20:18;100464.59;;;19.06;84.67
163;BME280;3946;48.958;8.284;2023-05-23T06:23:04;100468.44;;;18.94;84.43
163;BME280;3946;48.958;8.284;2023-05-23T06:25:49;100480.28;;;18.98;85.13
163;BME280;3946;48.958;8.284;2023-05-23T06:28:36;100480.38;;;19.06;84.55
163;BME280;3946;48.958;8.284;2023-05-23T06:31:24;100481.34;;;19.05;84.62
163;BME280;3946;48.958;8.284;2023-05-23T06:34:09;100484.09;;;19.03;84.38
163;BME280;3946;48.958;8.284;2023-05-23T06:36:54;100490.50;;;19.36;83.83
163;BME280;3946;48.958;8.284;2023-05-23T06:39:39;100450.75;;;19.13;81.44
163;BME280;3946;48.958;8.284;2023-05-23T06:42:25;100499.34;;;19.35;82.17
163;BME280;3946;48.958;8.284;2023-05-23T06:45:27;100511.88;;;19.06;82.18
163;BME280;3946;48.958;8.284;2023-05-23T06:48:12;100508.75;;;19.20;82.94
163;BME280;3946;48.958;8.284;2023-05-23T06:50:57;100513.47;;;19.34;81.91
163;BME280;3946;48.958;8.284;2023-05-23T06:53:43;100509.22;;;19.15;82.30
163;BME280;3946;48.958;8.284;2023-05-23T06:56:28;100514.75;;;19.12;83.18
163;BME280;3946;48.958;8.284;2023-05-23T06:59:16;100521.16;;;19.28;82.10
163;BME280;3946;48.958;8.284;2023-05-23T07:02:02;100517.06;;;19.33;80.33
163;BME280;3946;48.958;8.284;2023-05-23T07:04:47;100518.31;;;19.56;79.66
163;BME280;3946;48.958;8.284;2023-05-23T07:07:40;100515.75;;;19.47;78.69
163;BME280;3946;48.958;8.284;2023-05-23T07:10:25;100520.22;;;19.37;78.74
163;BME280;3946;48.958;8.284;2023-05-23T07:13:16;100521.19;;;19.18;78.61
163;BME280;3946;48.958;8.284;2023-05-23T07:16:01;100522.13;;;19.44;77.87
163;BME280;3946;48.958;8.284;2023-05-23T07:18:50;100506.91;;;19.91;75.82
163;BME280;3946;48.958;8.284;2023-05-23T07:21:36;100501.72;;;20.34;74.90
163;BME280;3946;48.958;8.284;2023-05-23T07:24:24;100510.59;;;20.33;73.97
163;BME280;3946;48.958;8.284;2023-05-23T07:27:11;100519.03;;;20.10;74.39
163;BME280;3946;48.958;8.284;2023-05-23T07:29:56;100522.13;;;20.06;73.34
163;BME280;3946;48.958;8.284;2023-05-23T07:32:42;100512.47;;;20.14;73.07
163;BME280;3946;48.958;8.284;2023-05-23T07:35:32;100515.34;;;19.95;72.83
163;BME280;3946;48.958;8.284;2023-05-23T07:38:19;100534.75;;;19.59;73.73
163;BME280;3946;48.958;8.284;2023-05-23T07:41:04;100533.72;;;19.06;74.59
163;BME280;3946;48.958;8.284;2023-05-23T07:43:49;100542.78;;;18.94;75.18
163;BME280;3946;48.958;8.284;2023-05-23T07:46:34;100543.41;;;19.06;75.71
163;BME280;3946;48.958;8.284;2023-05-23T07:49:19;100548.50;;;19.07;76.43
163;BME280;3946;48.958;8.284;2023-05-23T07:52:06;100539.06;;;19.14;74.57
163;BME280;3946;48.958;8.284;2023-05-23T07:54:52;100540.56;;;19.35;75.33
163;BME280;3946;48.958;8.284;2023-05-23T07:57:38;100540.41;;;19.18;74.83
163;BME280;3946;48.958;8.284;2023-05-23T08:00:25;100536.47;;;19.68;74.24
163;BME280;3946;48.958;8.284;2023-05-23T08:03:15;100530.34;;;19.59;73.10
163;BME280;3946;48.958;8.284;2023-05-23T08:06:12;100540.25;;;19.20;74.47
163;BME280;3946;48.958;8.284;2023-05-23T08:08:58;100540.56;;;19.35;74.36
163;BME280;3946;48.958;8.284;2023-05-23T08:11:44;100542.16;;;19.45;73.57
163;BME280;3946;48.958;8.284;2023-05-23T08:14:29;100541.38;;;19.17;73.95
163;BME280;3946;48.958;8.284;2023-05-23T08:17:26;100539.53;;;19.28;73.50
163;BME280;3946;48.958;8.284;2023-05-23T08:20:12;100555.75;;;19.41;74.42
163;BME280;3946;48.958;8.284;2023-05-23T08:22:57;100567.31;;;19.30;74.26
163;BME280;3946;48.958;8.284;2023-05-23T08:25:44;100553.81;;;19.43;74.01
163;BME280;3946;48.958;8.284;2023-05-23T08:28:30;100558.03;;;19.53;73.95
163;BME280;3946;48.958;8.284;2023-05-23T08:31:20;100565.72;;;19.37;73.58
163;BME280;3946;48.958;8.284;2023-05-23T08:34:06;100558.94;;;19.62;73.26
163;BME280;3946;48.958;8.284;2023-05-23T08:36:54;100571.41;;;19.60;73.09
163;BME280;3946;48.958;8.284;2023-05-23T08:39:39;100572.94;;;19.35;74.41
163;BME280;3946;48.958;8.284;2023-05-23T08:42:41;100567.97;;;19.32;73.83
163;BME280;3946;48.958;8.284;2023-05-23T08:45:27;100566.25;;;19.23;73.52
163;BME280;3946;48.958;8.284;2023-05-23T08:48:13;100586.28;;;19.24;74.79
163;BME280;3946;48.958;8.284;2023-05-23T08:51:03;100579.97;;;19.17;73.42
163;BME280;3946;48.958;8.284;2023-05-23T08:53:49;100574.59;;;19.36;73.11
163;BME280;3946;48.958;8.284;2023-05-23T08:56:37;100568.56;;;19.71;72.79
163;BME280;3946;48.958;8.284;2023-05-23T08:59:26;100546.00;;;19.86;70.79
163;BME280;3946;48.958;8.284;2023-05-23T09:02:12;100549.25;;;19.80;70.59
163;BME280;3946;48.958;8.284;2023-05-23T09:04:58;100555.00;;;19.84;70.31
163;BME280;3946;48.958;8.284;2023-05-23T09:07:44;100552.97;;;19.96;69.82
163;BME280;3946;48.958;8.284;2023-05-23T09:10:30;100554.25;;;19.91;69.83
163;BME280;3946;48.958;8.284;2023-05-23T09:13:16;100561.69;;;19.96;69.89
163;BME280;3946;48.958;8.284;2023-05-23T09:16:06;100541.22;;;20.08;68.66
163;BME280;3946;48.958;8.284;2023-05-23T09:18:57;100552.31;;;19.94;68.55
163;BME280;3946;48.958;8.284;2023-05-23T09:21:45;100542.97;;;20.25;68.22
163;BME280;3946;48.958;8.284;2023-05-23T09:24:38;100548.69;;;20.20;68.47
163;BME280;3946;48.958;8.284;2023-05-23T09:27:26;100560.25;;;20.02;68.83
163;BME280;3946;48.958;8.284;2023-05-23T09:30:11;100554.34;;;20.25;68.67
163;BME280;3946;48.958;8.284;2023-05-23T09:32:58;100568.41;;;19.73;68.94
163;BME280;3946;48.958;8.284;2023-05-23T09:35:45;100562.16;;;19.74;69.39
163;BME280;3946;48.958;8.284;2023-05-23T09:38:30;100540.47;;;19.72;67.56
163;BME280;3946;48.958;8.284;2023-05-23T09:41:18;100538.94;;;19.87;67.09
163;BME280;3946;48.958;8.284;2023-05-23T09:44:07;100544.34;;;19.85;67.64
163;BME280;3946;48.958;8.284;2023-05-23T09:46:53;100543.22;;;20.14;67.84
163;BME280;3946;48.958;8.284;2023-05-23T09:49:39;100541.31;;;19.98;66.81
163;BME280;3946;48.958;8.284;2023-05-23T09:52:25;100521.91;;;19.99;65.43
163;BME280;3946;48.958;8.284;2023-05-23T09:55:10;100536.44;;;19.85;66.15
163;BME280;3946;48.958;8.284;2023-05-23T09:57:55;100545.53;;;20.17;66.20
163;BME280;3946;48.958;8.284;2023-05-23T10:00:42;100552.22;;;19.85;66.88
163;BME280;3946;48.958;8.284;2023-05-23T10:03:30;100549.94;;;20.08;66.58
163;BME280;3946;48.958;8.284;2023-05-23T10:06:20;100536.72;;;20.44;65.74
163;BME280;3946;48.958;8.284;2023-05-23T10:09:08;100543.81;;;20.51;66.29
163;BME280;3946;48.958;8.284;2023-05-23T10:15:10;100519.59;;;20.22;64.83
163;BME280;3946;48.958;8.284;2023-05-23T10:20:59;100539.75;;;20.13;65.40
163;BME280;3946;48.958;8.284;2023-05-23T10:23:51;100552.16;;;19.95;66.33
163;BME280;3946;48.958;8.284;2023-05-23T10:26:36;100533.78;;;20.55;65.40
163;BME280;3946;48.958;8.284;2023-05-23T10:29:21;100518.31;;;20.94;64.51
163;BME280;3946;48.958;8.284;2023-05-23T10:32:06;100482.84;;;21.55;62.59
163;BME280;3946;48.958;8.284;2023-05-23T10:34:54;100461.19;;;21.76;61.68
163;BME280;3946;48.958;8.284;2023-05-23T10:37:44;100453.59;;;22.52;60.32
163;BME280;3946;48.958;8.284;2023-05-23T10:40:33;100418.53;;;22.36;58.97
163;BME280;3946;48.958;8.284;2023-05-23T10:43:22;100425.19;;;22.54;58.39
163;BME280;3946;48.958;8.284;2023-05-23T10:46:11;100434.25;;;22.21;58.89
163;BME280;3946;48.958;8.284;2023-05-23T10:48:56;100459.41;;;21.44;60.25
163;BME280;3946;48.958;8.284;2023-05-23T10:51:41;100456.47;;;21.22;60.06
163;BME280;3946;48.958;8.284;2023-05-23T10:54:26;100466.19;;;21.38;60.55
163;BME280;3946;48.958;8.284;2023-05-23T10:57:20;100476.19;;;21.18;60.98
163;BME280;3946;48.958;8.284;2023-05-23T11:00:06;100461.66;;;22.12;59.80
163;BME280;3946;48.958;8.284;2023-05-23T11:02:58;100455.59;;;22.42;59.81
163;BME280;3946;48.958;8.284;2023-05-23T11:05:46;100426.94;;;22.70;58.21
163;BME280;3946;48.958;8.284;2023-05-23T11:08:38;100439.88;;;22.18;58.59
163;BME280;3946;48.958;8.284;2023-05-23T11:11:25;100480.19;;;21.71;60.29
163;BME280;3946;48.958;8.284;2023-05-23T11:14:31;100503.09;;;21.54;61.50
163;BME280;3946;48.958;8.284;2023-05-23T11:17:17;100482.00;;;21.46;61.25
163;BME280;3946;48.958;8.284;2023-05-23T11:20:03;100487.44;;;21.61;61.35
163;BME280;3946;48.958;8.284;2023-05-23T11:22:53;100494.53;;;21.36;61.26
163;BME280;3946;48.958;8.284;2023-05-23T11:25:38;100532.94;;;21.63;62.98
163;BME280;3946;48.958;8.284;2023-05-23T11:28:24;100519.09;;;21.69;62.80
163;BME280;3946;48.958;8.284;2023-05-23T11:31:10;100494.84;;;21.49;61.37
163;BME280;3946;48.958;8.284;2023-05-23T11:33:56;100474.25;;;21.69;60.86
163;BME280;3946;48.958;8.284;2023-05-23T11:36:41;100501.91;;;21.97;61.84
163;BME280;3946;48.958;8.284;2023-05-23T11:39:26;100433.06;;;22.31;58.90
163;BME280;3946;48.958;8.284;2023-05-23T11:42:11;100454.94;;;22.48;59.41
163;BME280;3946;48.958;8.284;2023-05-23T11:44:56;100439.22;;;22.55;59.70
163;BME280;3946;48.958;8.284;2023-05-23T11:47:42;100422.09;;;22.43;58.55
163;BME280;3946;48.958;8.284;2023-05-23T11:50:28;100447.19;;;21.91;60.10
163;BME280;3946;48.958;8.284;2023-05-23T11:53:13;100475.56;;;21.33;60.85
163;BME280;3946;48.958;8.284;2023-05-23T11:56:00;100526.75;;;21.14;62.57
163;BME280;3946;48.958;8.284;2023-05-23T11:58:46;100545.41;;;20.78;64.04
163;BME280;3946;48.958;8.284;2023-05-23T12:01:31;100534.03;;;20.70;64.19
163;BME280;3946;48.958;8.284;2023-05-23T12:04:18;100540.69;;;20.90;64.81
163;BME280;3946;48.958;8.284;2023-05-23T12:07:04;100520.16;;;21.10;63.81
163;BME280;3946;48.958;8.284;2023-05-23T12:09:50;100516.47;;;20.94;63.58
163;BME280;3946;48.958;8.284;2023-05-23T12:12:39;100529.69;;;21.03;64.10
163;BME280;3946;48.958;8.284;2023-05-23T12:15:25;100527.22;;;21.01;64.34
163;BME280;3946;48.958;8.284;2023-05-23T12:18:10;100521.88;;;21.35;64.21
163;BME280;3946;48.958;8.284;2023-05-23T12:20:59;100512.81;;;21.38;63.51
163;BME280;3946;48.958;8.284;2023-05-23T12:23:45;100505.75;;;21.54;63.15
163;BME280;3946;48.958;8.284;2023-05-23T12:26:30;100474.09;;;21.62;61.98
163;BME280;3946;48.958;8.284;2023-05-23T12:29:17;100447.69;;;21.87;60.35
163;BME280;3946;48.958;8.284;2023-05-23T12:32:03;100464.69;;;21.60;61.00
163;BME280;3946;48.958;8.284;2023-05-23T12:34:48;100480.03;;;21.32;61.34
163;BME280;3946;48.958;8.284;2023-05-23T12:37:34;100466.84;;;21.40;61.25
163;BME280;3946;48.958;8.284;2023-05-23T12:40:22;100479.69;;;21.84;61.61
163;BME280;3946;48.958;8.284;2023-05-23T12:43:14;100451.63;;;21.83;60.56
163;BME280;3946;48.958;8.284;2023-05-23T12:46:05;100482.25;;;22.24;61.17
163;BME280;3946;48.958;8.284;2023-05-23T12:48:51;100424.38;;;22.54;58.88
163;BME280;3946;48.958;8.284;2023-05-23T12:51:36;100404.78;;;22.71;57.72
163;BME280;3946;48.958;8.284;2023-05-23T12:54:22;100410.44;;;22.91;58.00
163;BME280;3946;48.958;8.284;2023-05-23T12:57:07;100390.06;;;22.77;57.44
163;BME280;3946;48.958;8.284;2023-05-23T12:59:53;100378.44;;;23.09;56.34
163;BME280;3946;48.958;8.284;2023-05-23T13:02:37;100382.44;;;22.82;56.43
163;BME280;3946;48.958;8.284;2023-05-23T13:05:23;100373.69;;;23.04;56.48
163;BME280;3946;48.958;8.284;2023-05-23T13:08:09;100395.25;;;22.62;57.39
163;BME280;3946;48.958;8.284;2023-05-23T13:10:56;100381.47;;;22.75;56.92
163;BME280;3946;48.958;8.284;2023-05-23T13:13:41;100406.47;;;23.18;57.88
163;BME280;3946;48.958;8.284;2023-05-23T13:16:26;100390.16;;;23.66;56.94
163;BME280;3946;48.958;8.284;2023-05-23T13:19:11;100363.91;;;23.42;56.04
163;BME280;3946;48.958;8.284;2023-05-23T13:21:56;100390.88;;;23.23;56.71
163;BME280;3946;48.958;8.284;2023-05-23T13:24:43;100362.75;;;23.07;56.14
163;BME280;3946;48.958;8.284;2023-05-23T13:27:30;100376.09;;;22.91;56.12
163;BME280;3946;48.958;8.284;2023-05-23T13:30:15;100374.31;;;22.60;56.20
163;BME280;3946;48.958;8.284;2023-05-23T13:33:00;100383.06;;;22.30;57.22
163;BME280;3946;48.958;8.284;2023-05-23T13:35:45;100447.91;;;22.24;59.80
163;BME280;3946;48.958;8.284;2023-05-23T13:38:31;100434.69;;;22.72;58.62
163;BME280;3946;48.958;8.284;2023-05-23T13:41:16;100404.16;;;22.38;58.00
163;BME280;3946;48.958;8.284;2023-05-23T13:44:03;100433.16;;;22.46;59.18
163;BME280;3946;48.958;8.284;2023-05-23T13:46:47;100405.16;;;22.37;57.89
163;BME280;3946;48.958;8.284;2023-05-23T13:49:33;100431.34;;;22.47;59.32
163;BME280;3946;48.958;8.284;2023-05-23T13:52:18;100398.72;;;22.31;57.34
163;BME280;3946;48.958;8.284;2023-05-23T13:55:03;100411.06;;;22.00;58.16
163;BME280;3946;48.958;8.284;2023-05-23T13:57:49;100360.72;;;22.41;56.33
163;BME280;3946;48.958;8.284;2023-05-23T14:00:35;100389.97;;;22.39;56.88
163;BME280;3946;48.958;8.284;2023-05-23T14:03:20;100346.25;;;22.59;55.80
163;BME280;3946;48.958;8.284;2023-05-23T14:06:05;100311.03;;;22.44;54.16
163;BME280;3946;48.958;8.284;2023-05-23T14:08:50;100372.63;;;22.37;56.44
163;BME280;3946;48.958;8.284;2023-05-23T14:11:35;100378.25;;;22.33;57.04
163;BME280;3946;48.958;8.284;2023-05-23T14:14:20;100398.16;;;22.13;57.81
163;BME280;3946;48.958;8.284;2023-05-23T14:17:06;100414.81;;;22.14;58.72
163;BME280;3946;48.958;8.284;2023-05-23T14:19:51;100425.88;;;21.93;58.75
163;BME280;3946;48.958;8.284;2023-05-23T14:22:37;100426.03;;;22.16;58.45
163;BME280;3946;48.958;8.284;2023-05-23T14:25:21;100432.97;;;22.48;59.12
163;BME280;3946;48.958;8.284;2023-05-23T14:28:07;100445.28;;;22.94;58.97
163;BME280;3946;48.958;8.284;2023-05-23T14:30:52;100403.44;;;22.75;57.70
163;BME280;3946;48.958;8.284;2023-05-23T14:33:39;100371.56;;;22.77;56.70
163;BME280;3946;48.958;8.284;2023-05-23T14:36:24;100389.91;;;22.47;57.11
163;BME280;3946;48.958;8.284;2023-05-23T14:39:09;100404.09;;;22.46;57.37
163;BME280;3946;48.958;8.284;2023-05-23T14:41:55;100417.03;;;22.95;58.12
163;BME280;3946;48.958;8.284;2023-05-23T14:44:40;100408.63;;;23.14;57.48
163;BME280;3946;48.958;8.284;2023-05-23T14:47:25;100421.97;;;22.67;58.19
163;BME280;3946;48.958;8.284;2023-05-23T14:50:12;100423.72;;;22.52;58.37
163;BME280;3946;48.958;8.284;2023-05-23T14:52:57;100413.50;;;22.49;57.75
163;BME280;3946;48.958;8.284;2023-05-23T14:55:42;100408.88;;;22.51;57.75
163;BME280;3946;48.958;8.284;2023-05-23T14:58:27;100392.94;;;22.36;57.09
163;BME280;3946;48.958;8.284;2023-05-23T15:01:12;100423.22;;;22.17;57.97
163;BME280;3946;48.958;8.284;2023-05-23T15:03:57;100464.84;;;21.91;59.44
163;BME280;3946;48.958;8.284;2023-05-23T15:06:46;100450.44;;;22.10;60.05
163;BME280;3946;48.958;8.284;2023-05-23T15:09:33;100481.00;;;22.04;61.17